Time;durP1;ratioP1;P1;durP2;ratioP2;P2;SDS_P1;SDS_P2;PMS_P1;PMS_P2;Temp;Humidity;BMP_temperature;BMP_pressure;BME280_temperature;BME280_humidity;BME280_pressure;Samples;Min_cycle;Max_cycle;Signal;HPM_P1;HPM_P2
2021/07/13 00:00:12;;;;;;;6.28;4.05;;;21.00;99.90;;;;;;4182103;28;20141;-78
2021/07/13 00:02:16;;;;;;;5.97;3.28;;;20.90;99.90;;;;;;4182051;28;20052;-76
2021/07/13 00:04:19;;;;;;;4.22;3.53;;;20.80;99.90;;;;;;4195640;28;20462;-77
2021/07/13 00:06:24;;;;;;;9.27;3.83;;;20.90;99.90;;;;;;4180776;28;20124;-76
2021/07/13 00:08:28;;;;;;;6.43;3.90;;;21.00;99.90;;;;;;4180038;28;20044;-76
2021/07/13 00:10:35;;;;;;;7.68;4.13;;;21.00;99.90;;;;;;4198285;28;20645;-75
2021/07/13 00:12:39;;;;;;;8.05;4.30;;;21.00;99.90;;;;;;4198422;28;20045;-76
2021/07/13 00:14:43;;;;;;;6.55;4.60;;;21.00;99.90;;;;;;4180153;28;20041;-78
2021/07/13 00:16:46;;;;;;;8.40;5.13;;;21.10;99.90;;;;;;4179533;28;20198;-76
2021/07/13 00:18:49;;;;;;;9.63;4.93;;;21.00;99.90;;;;;;4180887;28;20537;-76
2021/07/13 00:20:53;;;;;;;6.45;5.10;;;20.90;99.90;;;;;;4182090;28;20048;-76
2021/07/13 00:22:56;;;;;;;8.30;5.40;;;20.90;99.90;;;;;;4192758;28;20099;-77
2021/07/13 00:25:01;;;;;;;8.55;5.28;;;20.90;99.90;;;;;;4197267;28;20132;-77
2021/07/13 00:27:05;;;;;;;8.15;5.60;;;20.90;99.90;;;;;;4181585;28;20040;-78
2021/07/13 00:29:08;;;;;;;6.32;5.07;;;21.00;99.90;;;;;;4180092;28;20438;-79
2021/07/13 00:31:11;;;;;;;12.07;5.95;;;21.10;99.90;;;;;;4195107;28;20051;-78
2021/07/13 00:33:17;;;;;;;11.20;6.00;;;21.10;99.90;;;;;;4195100;28;20045;-78
2021/07/13 00:35:20;;;;;;;11.52;6.05;;;21.00;99.90;;;;;;4179761;28;20057;-77
2021/07/13 00:37:24;;;;;;;9.70;5.65;;;21.10;99.90;;;;;;4195349;28;20075;-79
2021/07/13 00:39:28;;;;;;;8.68;7.68;;;21.10;99.90;;;;;;4178784;28;20124;-77
2021/07/13 00:41:35;;;;;;;9.98;6.95;;;21.00;99.90;;;;;;4178815;28;20127;-77
2021/07/13 00:43:38;;;;;;;9.10;7.40;;;21.10;99.90;;;;;;4178499;28;20119;-77
2021/07/13 00:45:41;;;;;;;16.70;7.75;;;21.00;99.90;;;;;;4178429;28;20487;-78
2021/07/13 00:47:46;;;;;;;9.80;7.30;;;20.80;99.90;;;;;;4194965;28;20052;-77
2021/07/13 00:49:49;;;;;;;12.32;8.55;;;20.80;99.90;;;;;;4178513;28;20036;-79
2021/07/13 00:51:53;;;;;;;11.40;7.70;;;20.90;99.90;;;;;;4195121;28;20048;-76
2021/07/13 00:53:57;;;;;;;13.40;9.30;;;20.90;99.90;;;;;;4162639;28;20064;-76
2021/07/13 00:56:00;;;;;;;13.65;7.82;;;20.90;99.90;;;;;;4180343;28;20055;-76
2021/07/13 00:58:05;;;;;;;13.45;9.18;;;20.90;99.90;;;;;;4196077;28;20451;-76
2021/07/13 01:00:11;;;;;;;9.63;8.52;;;20.90;99.90;;;;;;4180931;28;20077;-76
2021/07/13 01:02:15;;;;;;;16.95;10.07;;;20.80;99.90;;;;;;4179666;28;20098;-76
2021/07/13 01:04:19;;;;;;;13.80;10.57;;;20.80;99.90;;;;;;4179758;28;20135;-77
2021/07/13 01:06:24;;;;;;;11.13;8.93;;;20.80;99.90;;;;;;4180918;28;20140;-78
2021/07/13 01:08:38;;;;;;;12.30;10.75;;;20.90;99.90;;;;;;4199016;28;20072;-76
2021/07/13 01:10:49;;;;;;;16.42;10.07;;;20.80;99.90;;;;;;4181656;28;20037;-76
2021/07/13 01:13:02;;;;;;;16.30;11.02;;;20.80;99.90;;;;;;4182807;28;20045;-76
2021/07/13 01:15:09;;;;;;;13.07;11.30;;;20.70;99.90;;;;;;4195374;28;20074;-79
2021/07/13 01:17:15;;;;;;;14.73;11.00;;;20.60;99.90;;;;;;4194707;28;20131;-78
2021/07/13 01:19:43;;;;;;;18.55;12.77;;;20.80;99.90;;;;;;4194892;28;20123;-79
2021/07/13 01:21:54;;;;;;;13.68;12.13;;;20.80;99.90;;;;;;4178674;28;20106;-79
2021/07/13 01:24:37;;;;;;;16.20;12.52;;;20.70;99.90;;;;;;4180679;28;20632;-77
2021/07/13 01:26:58;;;;;;;16.33;12.80;;;20.70;99.90;;;;;;4179987;28;20068;-79
2021/07/13 01:29:06;;;;;;;17.10;12.95;;;20.70;99.90;;;;;;4199196;28;20079;-77
2021/07/13 01:31:12;;;;;;;22.52;13.27;;;20.80;99.90;;;;;;4181616;28;20574;-78
2021/07/13 01:33:19;;;;;;;18.10;12.52;;;20.70;99.90;;;;;;4198012;28;20174;-79
2021/07/13 01:35:26;;;;;;;22.30;12.43;;;20.80;99.90;;;;;;4181527;28;20045;-78
2021/07/13 01:37:30;;;;;;;18.15;13.15;;;20.70;99.90;;;;;;4165267;28;20119;-78
2021/07/13 01:39:35;;;;;;;24.50;14.15;;;20.70;99.90;;;;;;4183057;28;20170;-76
2021/07/13 01:41:40;;;;;;;19.08;13.48;;;20.80;99.90;;;;;;4181313;28;20040;-77
2021/07/13 01:43:44;;;;;;;18.92;13.38;;;20.80;99.90;;;;;;4199051;28;20524;-78
2021/07/13 01:45:50;;;;;;;17.30;12.60;;;20.70;99.90;;;;;;4181565;28;20055;-77
2021/07/13 01:47:54;;;;;;;19.00;12.35;;;20.70;99.90;;;;;;4199158;28;20052;-77
2021/07/13 01:49:59;;;;;;;17.63;13.65;;;20.70;99.90;;;;;;4188014;28;20055;-77
2021/07/13 01:52:03;;;;;;;18.00;12.15;;;20.60;99.90;;;;;;4185603;28;20052;-78
2021/07/13 01:54:09;;;;;;;16.40;11.15;;;20.70;99.90;;;;;;4185801;28;20714;-75
2021/07/13 01:56:13;;;;;;;12.30;10.40;;;20.80;99.90;;;;;;4202736;28;20121;-77
2021/07/13 01:58:18;;;;;;;15.00;11.77;;;20.90;99.90;;;;;;4184517;28;20488;-75
2021/07/13 02:00:21;;;;;;;18.23;11.57;;;20.90;99.90;;;;;;4183510;28;20052;-77
2021/07/13 02:02:27;;;;;;;14.82;12.23;;;20.80;99.90;;;;;;4184344;28;20041;-76
2021/07/13 02:04:34;;;;;;;16.40;10.75;;;20.80;99.90;;;;;;4184115;28;20045;-75
2021/07/13 02:06:37;;;;;;;14.45;10.63;;;20.70;99.90;;;;;;4181034;28;20450;-76
2021/07/13 02:08:41;;;;;;;17.77;12.00;;;20.80;99.90;;;;;;4181024;28;20127;-78
2021/07/13 02:10:45;;;;;;;19.75;11.48;;;20.90;99.90;;;;;;4197924;28;20489;-77
2021/07/13 02:12:48;;;;;;;13.77;11.32;;;20.90;99.90;;;;;;4181141;28;20462;-76
2021/07/13 02:14:51;;;;;;;15.07;10.65;;;20.90;99.90;;;;;;4181750;28;20057;-76
2021/07/13 02:16:55;;;;;;;12.35;9.90;;;20.90;99.90;;;;;;4198363;28;20063;-78
2021/07/13 02:18:59;;;;;;;15.13;11.25;;;20.90;99.90;;;;;;4183382;28;20061;-79
2021/07/13 02:21:04;;;;;;;11.00;8.70;;;20.90;99.90;;;;;;4181638;28;20061;-79
2021/07/13 02:23:08;;;;;;;12.82;10.85;;;21.00;99.90;;;;;;4181049;28;20051;-79
2021/07/13 02:25:12;;;;;;;12.55;8.80;;;21.00;99.90;;;;;;4200502;28;20071;-77
2021/07/13 02:27:19;;;;;;;23.55;10.70;;;21.00;99.80;;;;;;4194532;28;20147;-80
2021/07/13 02:29:30;;;;;;;16.38;9.82;;;21.00;99.90;;;;;;4198671;28;20049;-78
2021/07/13 02:31:35;;;;;;;11.23;8.70;;;20.70;99.90;;;;;;4181464;28;20087;-76
2021/07/13 02:33:45;;;;;;;12.57;9.30;;;20.80;99.90;;;;;;4184260;28;20051;-77
2021/07/13 02:35:54;;;;;;;10.98;8.65;;;20.90;99.90;;;;;;4198839;28;20064;-77
2021/07/13 02:37:57;;;;;;;15.55;8.68;;;20.90;99.90;;;;;;4198569;28;20219;-77
2021/07/13 02:40:01;;;;;;;17.00;9.00;;;20.90;99.90;;;;;;4180170;28;20132;-78
2021/07/13 02:42:06;;;;;;;19.05;8.77;;;21.00;99.90;;;;;;4196879;28;20064;-77
2021/07/13 02:44:10;;;;;;;13.35;9.90;;;21.10;99.80;;;;;;4181503;28;20045;-79
2021/07/13 02:46:15;;;;;;;13.00;8.25;;;20.90;99.90;;;;;;4180388;28;20049;-79
2021/07/13 02:48:19;;;;;;;;;;;21.00;99.90;;;;;;4180829;28;20053;-78
2021/07/13 02:50:23;;;;;;;13.50;9.20;;;20.90;99.90;;;;;;4180256;28;19946;-80
2021/07/13 02:52:30;;;;;;;14.20;8.38;;;21.00;99.90;;;;;;4180033;28;20061;-78
2021/07/13 02:54:33;;;;;;;11.55;9.20;;;21.00;99.90;;;;;;4196806;28;20059;-77
2021/07/13 02:56:40;;;;;;;12.02;9.35;;;21.00;99.80;;;;;;4168174;28;20049;-77
2021/07/13 02:58:44;;;;;;;14.40;9.93;;;21.00;99.70;;;;;;4186033;28;20049;-79
2021/07/13 03:00:48;;;;;;;13.15;9.18;;;21.00;99.70;;;;;;4198777;28;20455;-77
2021/07/13 03:02:53;;;;;;;15.50;10.57;;;21.00;99.90;;;;;;4196632;28;20123;-77
2021/07/13 03:04:57;;;;;;;17.58;9.38;;;21.00;99.90;;;;;;4196392;28;20076;-78
2021/07/13 03:07:01;;;;;;;16.65;10.95;;;21.00;99.90;;;;;;4180377;28;20059;-76
2021/07/13 03:09:06;;;;;;;16.70;9.68;;;21.10;99.80;;;;;;4181141;28;20187;-79
2021/07/13 03:11:10;;;;;;;12.88;10.00;;;21.10;99.70;;;;;;4163247;28;20054;-77
2021/07/13 03:13:14;;;;;;;16.42;10.00;;;21.20;99.70;;;;;;4196962;28;20113;-78
2021/07/13 03:15:20;;;;;;;19.95;10.27;;;21.20;99.60;;;;;;4179978;28;20044;-79
2021/07/13 03:17:24;;;;;;;17.75;10.10;;;21.20;99.50;;;;;;4196320;28;20200;-78
2021/07/13 03:19:28;;;;;;;17.83;9.50;;;21.10;99.80;;;;;;4181005;28;20470;-78
2021/07/13 03:21:35;;;;;;;13.07;9.65;;;21.10;99.80;;;;;;4196796;28;20064;-77
2021/07/13 03:23:41;;;;;;;21.35;10.02;;;21.10;99.80;;;;;;4181251;28;20056;-77
2021/07/13 03:25:46;;;;;;;12.32;9.90;;;21.10;99.90;;;;;;4196577;28;20126;-75
2021/07/13 03:27:51;;;;;;;11.77;9.38;;;21.00;99.90;;;;;;4172924;28;20100;-77
2021/07/13 03:29:57;;;;;;;12.40;9.18;;;21.00;99.90;;;;;;4174519;28;20431;-77
2021/07/13 03:32:02;;;;;;;16.30;9.40;;;21.00;99.90;;;;;;4208470;28;20063;-75
2021/07/13 03:34:06;;;;;;;16.30;9.77;;;20.90;99.90;;;;;;4193415;28;20551;-76
2021/07/13 03:36:09;;;;;;;15.20;9.30;;;20.80;99.90;;;;;;4208946;28;20072;-76
2021/07/13 03:38:15;;;;;;;14.85;9.10;;;20.80;99.90;;;;;;4183373;28;20592;-78
2021/07/13 03:40:20;;;;;;;12.57;9.45;;;20.80;99.90;;;;;;4199130;28;20136;-77
2021/07/13 03:42:25;;;;;;;12.18;8.07;;;20.80;99.90;;;;;;4198914;28;20087;-75
2021/07/13 03:44:28;;;;;;;13.10;9.55;;;20.90;99.90;;;;;;4180528;28;20056;-78
2021/07/13 03:46:34;;;;;;;13.07;8.38;;;20.90;99.90;;;;;;4165397;28;20135;-77
2021/07/13 03:48:39;;;;;;;13.90;9.25;;;20.90;99.90;;;;;;4196974;28;20118;-78
2021/07/13 03:50:43;;;;;;;;;;;21.00;99.90;;;;;;4197029;28;20064;-77
2021/07/13 03:52:47;;;;;;;14.15;8.60;;;21.00;99.90;;;;;;4180749;28;19925;-76
2021/07/13 03:54:50;;;;;;;13.77;9.30;;;21.00;99.90;;;;;;4181677;28;20442;-80
2021/07/13 03:56:53;;;;;;;18.88;11.10;;;21.00;99.90;;;;;;4197818;28;20637;-76
2021/07/13 03:58:58;;;;;;;16.38;11.93;;;20.90;99.90;;;;;;4180388;28;20128;-77
2021/07/13 04:01:02;;;;;;;12.30;10.52;;;20.90;99.90;;;;;;4195701;28;20468;-79
2021/07/13 04:03:05;;;;;;;17.40;10.10;;;20.90;99.90;;;;;;4195429;28;20166;-77
2021/07/13 04:05:10;;;;;;;16.20;9.10;;;20.90;99.90;;;;;;4196374;28;20060;-77
2021/07/13 04:07:13;;;;;;;16.13;8.60;;;21.00;99.90;;;;;;4179182;28;20128;-79
2021/07/13 04:09:16;;;;;;;19.05;10.60;;;21.00;99.90;;;;;;4179025;28;20522;-77
2021/07/13 04:11:20;;;;;;;21.45;10.75;;;21.00;99.90;;;;;;4180840;28;20498;-80
2021/07/13 04:13:23;;;;;;;15.05;10.88;;;21.00;99.90;;;;;;4178741;28;20124;-78
2021/07/13 04:15:28;;;;;;;15.32;11.60;;;21.00;99.90;;;;;;4178732;28;20053;-79
2021/07/13 04:17:31;;;;;;;16.55;10.27;;;20.90;99.90;;;;;;4195460;28;20538;-75
2021/07/13 04:19:35;;;;;;;18.98;11.90;;;20.90;99.90;;;;;;4195580;28;20135;-77
2021/07/13 04:21:38;;;;;;;20.88;13.30;;;20.80;99.90;;;;;;4162680;28;20065;-77
2021/07/13 04:23:41;;;;;;;18.05;11.80;;;20.70;99.90;;;;;;4178900;28;20065;-78
2021/07/13 04:25:47;;;;;;;14.50;10.88;;;20.70;99.90;;;;;;4179545;28;20075;-77
2021/07/13 04:27:51;;;;;;;18.52;12.38;;;20.80;99.90;;;;;;4195525;28;20113;-77
2021/07/13 04:29:54;;;;;;;18.80;11.63;;;20.80;99.90;;;;;;4180223;28;20133;-76
2021/07/13 04:31:59;;;;;;;18.05;12.48;;;20.90;99.90;;;;;;4191674;28;20116;-76
2021/07/13 04:34:09;;;;;;;21.77;11.90;;;20.90;99.90;;;;;;4197290;28;20132;-80
2021/07/13 04:36:12;;;;;;;20.42;11.93;;;20.90;99.90;;;;;;4179133;28;20052;-78
2021/07/13 04:38:15;;;;;;;19.45;11.48;;;21.00;99.90;;;;;;4180992;28;20418;-77
2021/07/13 04:40:19;;;;;;;16.88;12.20;;;20.90;99.90;;;;;;4179100;28;20110;-79
2021/07/13 04:42:22;;;;;;;14.98;11.20;;;20.90;99.90;;;;;;4163418;28;20149;-76
2021/07/13 04:44:25;;;;;;;19.75;12.10;;;21.00;99.90;;;;;;4186651;28;20101;-76
2021/07/13 04:46:28;;;;;;;15.60;11.20;;;21.00;99.90;;;;;;4206067;28;20059;-76
2021/07/13 04:48:33;;;;;;;22.65;12.63;;;21.10;99.90;;;;;;4207931;28;20056;-75
2021/07/13 04:50:36;;;;;;;17.27;12.02;;;21.10;99.90;;;;;;4188560;28;20060;-79
2021/07/13 04:52:40;;;;;;;13.45;12.02;;;21.20;99.90;;;;;;4186780;28;20140;-78
2021/07/13 04:54:43;;;;;;;21.30;12.20;;;21.10;99.90;;;;;;4183931;28;20135;-76
2021/07/13 04:56:46;;;;;;;21.35;13.27;;;21.20;99.90;;;;;;4196759;28;20074;-78
2021/07/13 04:58:50;;;;;;;20.00;13.10;;;21.10;99.90;;;;;;4180776;28;20132;-78
2021/07/13 05:00:53;;;;;;;22.93;13.37;;;21.10;99.90;;;;;;4180375;28;20052;-76
2021/07/13 05:02:57;;;;;;;23.67;14.13;;;21.00;99.90;;;;;;4180505;28;20045;-77
2021/07/13 05:05:02;;;;;;;25.38;13.13;;;21.00;99.90;;;;;;4179279;28;20195;-76
2021/07/13 05:07:05;;;;;;;20.52;13.10;;;21.00;99.90;;;;;;4196506;28;20085;-76
2021/07/13 05:09:09;;;;;;;22.38;13.43;;;21.10;99.90;;;;;;4196510;28;20136;-77
2021/07/13 05:11:15;;;;;;;19.05;13.85;;;21.00;99.90;;;;;;4195845;28;20049;-78
2021/07/13 05:13:19;;;;;;;21.23;12.63;;;21.00;99.90;;;;;;4195103;28;20044;-77
2021/07/13 05:15:22;;;;;;;28.42;14.82;;;21.10;99.90;;;;;;4179658;28;20041;-77
2021/07/13 05:17:25;;;;;;;22.92;13.77;;;20.90;99.90;;;;;;4179706;28;20075;-78
2021/07/13 05:19:31;;;;;;;20.85;13.85;;;20.90;99.90;;;;;;4178269;28;20060;-78
2021/07/13 05:21:38;;;;;;;21.33;13.27;;;20.90;99.90;;;;;;4178223;28;20045;-79
2021/07/13 05:23:41;;;;;;;17.48;12.38;;;20.90;99.90;;;;;;4194704;28;20123;-76
2021/07/13 05:25:44;;;;;;;33.30;15.02;;;21.00;99.90;;;;;;4179552;28;20155;-77
2021/07/13 05:27:48;;;;;;;27.42;15.30;;;20.90;99.90;;;;;;4178420;28;20145;-76
2021/07/13 05:29:51;;;;;;;23.35;13.98;;;20.80;99.90;;;;;;4179926;28;20045;-78
2021/07/13 05:31:55;;;;;;;22.55;15.02;;;20.80;99.90;;;;;;4195212;28;20158;-78
2021/07/13 05:33:59;;;;;;;23.13;15.68;;;20.60;99.90;;;;;;4194835;28;20123;-76
2021/07/13 05:36:02;;;;;;;25.73;14.13;;;20.60;99.90;;;;;;4179332;28;20134;-76
2021/07/13 05:38:07;;;;;;;32.72;14.70;;;20.70;99.90;;;;;;4195438;28;20438;-76
2021/07/13 05:40:11;;;;;;;23.92;15.90;;;20.70;99.90;;;;;;4179021;28;20068;-75
2021/07/13 05:42:15;;;;;;;24.80;13.95;;;20.60;99.90;;;;;;4178783;28;20686;-76
2021/07/13 05:44:18;;;;;;;22.15;14.05;;;20.70;99.90;;;;;;4178123;28;20132;-77
2021/07/13 05:46:21;;;;;;;24.17;13.90;;;20.70;99.90;;;;;;4179257;28;20544;-76
2021/07/13 05:48:24;;;;;;;25.48;14.52;;;20.80;99.90;;;;;;4182423;28;20053;-77
2021/07/13 05:50:28;;;;;;;24.88;13.02;;;20.90;99.90;;;;;;4183896;28;20109;-79
2021/07/13 05:52:31;;;;;;;26.15;14.13;;;21.00;99.90;;;;;;4182627;28;20465;-78
2021/07/13 05:54:36;;;;;;;21.70;13.82;;;21.10;99.90;;;;;;4180258;28;20101;-79
2021/07/13 05:56:43;;;;;;;26.38;14.07;;;21.10;99.90;;;;;;4195665;28;20104;-77
2021/07/13 05:58:46;;;;;;;27.17;14.05;;;21.10;99.90;;;;;;4180638;28;20052;-77
2021/07/13 06:00:50;;;;;;;21.48;14.00;;;21.20;99.90;;;;;;4195945;28;20068;-77
2021/07/13 06:02:53;;;;;;;26.80;14.27;;;21.10;99.90;;;;;;4179005;28;20190;-78
2021/07/13 06:04:56;;;;;;;25.42;14.15;;;21.10;99.90;;;;;;4195191;28;20157;-77
2021/07/13 06:07:00;;;;;;;20.45;13.57;;;21.10;99.90;;;;;;4178455;28;20041;-80
2021/07/13 06:09:03;;;;;;;23.52;15.32;;;21.10;99.90;;;;;;4179707;28;20102;-78
2021/07/13 06:11:08;;;;;;;27.95;15.15;;;21.10;99.90;;;;;;4194985;28;20175;-78
2021/07/13 06:13:11;;;;;;;31.40;15.55;;;20.90;99.90;;;;;;4194581;28;20059;-80
2021/07/13 06:15:14;;;;;;;32.03;15.98;;;20.90;99.90;;;;;;4195829;28;20529;-77
2021/07/13 06:17:17;;;;;;;27.58;16.10;;;21.00;99.90;;;;;;4197014;28;20181;-77
2021/07/13 06:19:21;;;;;;;30.05;16.58;;;21.00;99.90;;;;;;4180575;28;20152;-77
2021/07/13 06:21:24;;;;;;;24.60;16.38;;;20.90;99.90;;;;;;4164413;28;20137;-79
2021/07/13 06:23:27;;;;;;;27.15;16.83;;;20.90;99.90;;;;;;4164406;28;20061;-78
2021/07/13 06:25:30;;;;;;;32.03;17.40;;;20.70;99.90;;;;;;4197182;28;20154;-77
2021/07/13 06:27:35;;;;;;;26.05;16.20;;;20.70;99.90;;;;;;4182007;28;20136;-79
2021/07/13 06:29:39;;;;;;;29.38;15.90;;;20.90;99.90;;;;;;4197183;28;20072;-79
2021/07/13 06:31:42;;;;;;;23.13;15.82;;;21.00;99.90;;;;;;4180791;28;20528;-78
2021/07/13 06:33:45;;;;;;;31.60;15.90;;;21.10;99.90;;;;;;4180693;28;20460;-76
2021/07/13 06:35:48;;;;;;;31.10;16.42;;;21.20;99.90;;;;;;4181189;28;20135;-76
2021/07/13 06:37:51;;;;;;;27.30;15.70;;;21.20;99.90;;;;;;4189849;28;20061;-75
2021/07/13 06:39:54;;;;;;;30.50;15.90;;;21.20;99.90;;;;;;4201388;28;20048;-76
2021/07/13 06:41:58;;;;;;;37.97;17.40;;;21.30;99.90;;;;;;4197559;28;20078;-78
2021/07/13 06:44:03;;;;;;;23.38;15.45;;;21.20;99.90;;;;;;4181721;28;20084;-78
2021/07/13 06:46:06;;;;;;;27.35;14.77;;;21.30;99.90;;;;;;4167463;28;20561;-76
2021/07/13 06:48:09;;;;;;;28.25;15.77;;;21.40;99.90;;;;;;4186004;28;20194;-79
2021/07/13 06:50:13;;;;;;;29.83;17.58;;;21.30;99.90;;;;;;4191169;28;20112;-78
2021/07/13 06:52:16;;;;;;;34.00;17.63;;;21.20;99.90;;;;;;4189755;28;20098;-79
2021/07/13 06:54:19;;;;;;;29.83;17.25;;;21.20;99.90;;;;;;4165777;28;20053;-77
2021/07/13 06:56:22;;;;;;;27.23;17.70;;;21.20;99.90;;;;;;4164634;28;20088;-79
2021/07/13 06:58:26;;;;;;;31.20;16.13;;;21.10;99.90;;;;;;4182752;28;20336;-75
2021/07/13 07:00:30;;;;;;;35.55;17.30;;;21.20;99.90;;;;;;4181966;28;20051;-75
2021/07/13 07:02:33;;;;;;;30.85;15.45;;;21.20;99.90;;;;;;4183563;28;20124;-77
2021/07/13 07:04:36;;;;;;;28.17;16.73;;;21.00;99.90;;;;;;4195021;28;20131;-75
2021/07/13 07:06:40;;;;;;;26.98;16.98;;;21.00;99.90;;;;;;4200786;28;20052;-75
2021/07/13 07:08:44;;;;;;;29.47;16.97;;;21.00;99.90;;;;;;4202846;28;20052;-75
2021/07/13 07:10:47;;;;;;;31.30;17.58;;;21.00;99.90;;;;;;4208911;28;20056;-74
2021/07/13 07:12:51;;;;;;;28.65;17.10;;;21.10;99.90;;;;;;4208669;28;20113;-74
2021/07/13 07:14:54;;;;;;;34.07;17.27;;;21.20;99.90;;;;;;4204575;28;20056;-75
2021/07/13 07:16:58;;;;;;;32.95;18.95;;;21.20;99.90;;;;;;4202390;28;20554;-75
2021/07/13 07:19:02;;;;;;;31.98;17.77;;;21.10;99.90;;;;;;4200401;28;20230;-76
2021/07/13 07:21:05;;;;;;;30.50;17.13;;;21.00;99.90;;;;;;4200266;28;20055;-75
2021/07/13 07:23:08;;;;;;;29.35;18.15;;;21.00;99.90;;;;;;4199923;28;20052;-76
2021/07/13 07:25:12;;;;;;;23.92;17.20;;;21.10;99.90;;;;;;4197580;28;20052;-70
2021/07/13 07:27:15;;;;;;;25.50;16.50;;;21.10;99.90;;;;;;4197177;28;20105;-72
2021/07/13 07:29:18;;;;;;;31.90;17.30;;;21.30;99.90;;;;;;4197121;28;20056;-71
2021/07/13 07:31:25;;;;;;;30.35;17.73;;;21.20;99.90;;;;;;4213388;28;20055;-72
2021/07/13 07:33:35;;;;;;;26.40;16.85;;;21.10;99.90;;;;;;4197471;28;20044;-72
2021/07/13 07:35:41;;;;;;;24.35;16.05;;;21.10;99.90;;;;;;4196917;28;20416;-73
2021/07/13 07:37:47;;;;;;;26.08;17.55;;;21.20;99.90;;;;;;4196922;28;20036;-73
2021/07/13 07:39:53;;;;;;;30.85;18.33;;;21.30;99.90;;;;;;4197034;28;20523;-73
2021/07/13 07:41:58;;;;;;;29.23;16.52;;;21.20;99.90;;;;;;4195684;28;20059;-76
2021/07/13 07:44:05;;;;;;;31.17;16.90;;;21.20;99.90;;;;;;4199604;28;20060;-76
2021/07/13 07:46:11;;;;;;;32.20;15.75;;;21.20;99.90;;;;;;4202554;28;20075;-72
2021/07/13 07:48:16;;;;;;;28.20;16.38;;;21.30;99.90;;;;;;4175679;28;20046;-73
2021/07/13 07:50:24;;;;;;;28.88;16.52;;;21.50;99.90;;;;;;4188032;28;20037;-74
2021/07/13 07:52:30;;;;;;;30.02;16.95;;;21.40;99.90;;;;;;4189063;28;20052;-71
2021/07/13 07:54:35;;;;;;;29.52;16.38;;;21.50;99.90;;;;;;4194947;28;20159;-71
2021/07/13 07:56:38;;;;;;;25.25;15.80;;;21.40;99.90;;;;;;4188489;28;20053;-73
2021/07/13 07:58:41;;;;;;;28.58;15.40;;;21.50;99.90;;;;;;4180203;28;20049;-71
2021/07/13 08:00:45;;;;;;;23.63;15.02;;;21.40;99.90;;;;;;4180084;28;20056;-72
2021/07/13 08:02:48;;;;;;;24.20;13.93;;;21.40;99.90;;;;;;4179842;28;20049;-71
2021/07/13 08:04:51;;;;;;;26.38;14.70;;;21.40;99.90;;;;;;4186023;28;20075;-71
2021/07/13 08:06:56;;;;;;;20.80;14.57;;;21.50;99.90;;;;;;4196054;28;20060;-74
2021/07/13 08:08:59;;;;;;;24.13;14.70;;;21.50;99.90;;;;;;4195607;28;20093;-74
2021/07/13 08:11:02;;;;;;;23.45;13.73;;;21.50;99.90;;;;;;4195005;28;20134;-72
2021/07/13 08:13:05;;;;;;;30.38;15.82;;;21.50;99.90;;;;;;4196136;28;20044;-73
2021/07/13 08:15:10;;;;;;;27.90;14.35;;;21.40;99.90;;;;;;4196565;28;20059;-74
2021/07/13 08:17:13;;;;;;;26.85;14.27;;;21.40;99.90;;;;;;4211689;28;20052;-71
2021/07/13 08:19:17;;;;;;;24.63;14.93;;;21.60;99.90;;;;;;4196814;28;20053;-71
2021/07/13 08:21:20;;;;;;;23.08;15.60;;;21.60;99.90;;;;;;4199461;28;20059;-72
2021/07/13 08:23:25;;;;;;;25.15;14.45;;;21.60;99.90;;;;;;4199830;28;20622;-70
2021/07/13 08:25:28;;;;;;;23.92;13.93;;;21.50;99.90;;;;;;4200552;28;20095;-72
2021/07/13 08:27:31;;;;;;;23.92;14.57;;;21.40;99.90;;;;;;4197197;28;20052;-72
2021/07/13 08:29:34;;;;;;;21.38;13.77;;;21.30;99.90;;;;;;4196690;28;20056;-71
2021/07/13 08:31:37;;;;;;;17.95;13.05;;;21.40;99.90;;;;;;4196988;28;20055;-72
2021/07/13 08:33:40;;;;;;;20.00;14.95;;;21.40;99.90;;;;;;4196729;28;20056;-71
2021/07/13 08:35:44;;;;;;;26.20;14.13;;;21.30;99.90;;;;;;4195774;28;20060;-70
2021/07/13 08:37:48;;;;;;;26.10;13.25;;;21.50;99.90;;;;;;4195640;28;20087;-70
2021/07/13 08:39:53;;;;;;;24.20;13.20;;;21.50;99.90;;;;;;4195193;28;20094;-69
2021/07/13 08:41:58;;;;;;;26.65;13.70;;;21.40;99.90;;;;;;4199867;28;20053;-69
2021/07/13 08:44:01;;;;;;;27.50;14.48;;;21.50;99.90;;;;;;4208762;28;20055;-69
2021/07/13 08:46:05;;;;;;;27.83;13.60;;;21.50;99.90;;;;;;4196980;28;20501;-71
2021/07/13 08:48:11;;;;;;;22.98;13.68;;;21.50;99.90;;;;;;4195887;28;20574;-68
2021/07/13 08:50:15;;;;;;;20.45;12.65;;;21.70;99.90;;;;;;4195574;28;20048;-69
2021/07/13 08:52:18;;;;;;;22.00;11.43;;;21.60;99.90;;;;;;4194988;28;20052;-66
2021/07/13 08:54:21;;;;;;;20.15;12.63;;;21.60;99.90;;;;;;4195505;28;20481;-71
2021/07/13 08:56:25;;;;;;;18.55;11.15;;;21.70;99.90;;;;;;4187106;28;20064;-70
2021/07/13 08:58:29;;;;;;;17.27;12.10;;;21.70;99.90;;;;;;4178949;28;20059;-72
2021/07/13 09:00:32;;;;;;;20.23;11.82;;;21.60;99.90;;;;;;4179208;28;20053;-69
2021/07/13 09:02:35;;;;;;;19.75;12.18;;;21.50;99.90;;;;;;4178804;28;20110;-72
2021/07/13 09:04:40;;;;;;;18.95;11.68;;;21.40;99.90;;;;;;4181743;28;21652;-70
2021/07/13 09:06:54;;;;;;;18.08;11.68;;;21.40;99.90;;;;;;4194466;28;20052;-71
2021/07/13 09:08:58;;;;;;;20.90;12.77;;;21.40;99.90;;;;;;4195666;28;20132;-71
2021/07/13 09:11:12;;;;;;;17.95;11.77;;;21.30;99.90;;;;;;4195816;28;20066;-69
2021/07/13 09:13:24;;;;;;;21.63;11.27;;;21.40;99.90;;;;;;4188541;28;20401;-70
2021/07/13 09:15:27;;;;;;;18.73;11.40;;;21.50;99.90;;;;;;4195671;28;20056;-69
2021/07/13 09:17:34;;;;;;;19.42;11.32;;;21.50;99.90;;;;;;4195416;28;20060;-71
2021/07/13 09:19:37;;;;;;;17.35;11.90;;;21.50;99.90;;;;;;4195554;28;20052;-69
2021/07/13 09:21:41;;;;;;;21.33;12.55;;;21.60;99.90;;;;;;4195840;28;20554;-71
2021/07/13 09:24:04;;;;;;;21.65;12.88;;;21.50;99.90;;;;;;4179078;28;20057;-70
2021/07/13 09:26:07;;;;;;;33.78;13.57;;;21.50;99.90;;;;;;4179066;28;20064;-72
2021/07/13 09:28:16;;;;;;;22.08;12.52;;;21.50;99.90;;;;;;4191984;28;20091;-72
2021/07/13 09:30:30;;;;;;;27.17;14.55;;;21.40;99.90;;;;;;4184419;28;20068;-73
2021/07/13 09:32:35;;;;;;;31.67;13.40;;;21.50;99.90;;;;;;4181595;28;20060;-72
2021/07/13 09:34:46;;;;;;;22.80;12.85;;;21.40;99.90;;;;;;4181484;28;20136;-74
2021/07/13 09:36:51;;;;;;;22.77;12.95;;;21.50;99.90;;;;;;4180623;28;20053;-70
2021/07/13 09:38:56;;;;;;;25.75;13.02;;;21.60;99.90;;;;;;4198079;28;20056;-73
2021/07/13 09:41:01;;;;;;;24.58;14.55;;;21.70;99.90;;;;;;4182872;28;20064;-72
2021/07/13 09:43:05;;;;;;;26.88;14.23;;;21.70;99.90;;;;;;4181960;28;20691;-71
2021/07/13 09:45:24;;;;;;;27.25;14.38;;;21.40;99.90;;;;;;4180697;28;20064;-71
2021/07/13 09:47:28;;;;;;;38.65;16.08;;;21.50;99.90;;;;;;4178930;28;20077;-72
2021/07/13 09:49:35;;;;;;;28.10;15.35;;;21.30;99.90;;;;;;4187497;28;20085;-71
2021/07/13 09:51:39;;;;;;;28.25;16.35;;;21.30;99.90;;;;;;4198719;28;20065;-69
2021/07/13 09:53:50;;;;;;;29.83;15.45;;;21.50;99.90;;;;;;4198785;28;20048;-74
2021/07/13 09:55:57;;;;;;;26.13;14.40;;;21.50;99.90;;;;;;4195525;28;20044;-71
2021/07/13 09:58:13;;;;;;;28.20;13.68;;;21.60;99.90;;;;;;4184089;28;20513;-71
2021/07/13 10:00:16;;;;;;;49.97;14.98;;;21.80;99.90;;;;;;4183976;28;20053;-71
2021/07/13 10:02:23;;;;;;;23.80;14.18;;;21.50;99.90;;;;;;4181405;28;20053;-71
2021/07/13 10:04:28;;;;;;;25.52;14.95;;;21.50;99.90;;;;;;4182657;28;20118;-71
2021/07/13 10:06:33;;;;;;;35.25;15.00;;;21.40;99.90;;;;;;4198488;28;20604;-71
2021/07/13 10:08:37;;;;;;;24.40;13.52;;;21.50;99.90;;;;;;4198486;28;20147;-73
2021/07/13 10:10:42;;;;;;;23.25;13.50;;;21.60;99.90;;;;;;4198466;28;20067;-72
2021/07/13 10:12:46;;;;;;;;;;;21.70;99.90;;;;;;4198812;28;20402;-72
2021/07/13 10:14:56;;;;;;;31.40;13.63;;;21.60;99.90;;;;;;4198226;28;19928;-72
2021/07/13 10:17:00;;;;;;;27.85;13.15;;;21.60;99.90;;;;;;4198455;28;20141;-71
2021/07/13 10:19:08;;;;;;;26.27;13.40;;;21.70;99.90;;;;;;4214212;28;20052;-71
2021/07/13 10:21:12;;;;;;;30.13;13.40;;;21.90;99.90;;;;;;4198492;28;20063;-70
2021/07/13 10:23:15;;;;;;;27.33;13.80;;;22.00;99.90;;;;;;4198687;28;20060;-70
2021/07/13 10:25:19;;;;;;;23.67;13.02;;;22.00;99.90;;;;;;4199198;28;20451;-70
2021/07/13 10:27:27;;;;;;;16.58;12.20;;;22.10;99.90;;;;;;4198817;28;20524;-68
2021/07/13 10:29:37;;;;;;;18.23;13.05;;;22.10;99.90;;;;;;4199156;28;20648;-70
2021/07/13 10:31:43;;;;;;;18.13;11.93;;;22.00;99.90;;;;;;4198898;28;20053;-68
2021/07/13 10:33:52;;;;;;;25.00;13.25;;;22.10;99.90;;;;;;4215104;28;20131;-71
2021/07/13 10:36:28;;;;;;;21.38;11.93;;;22.20;99.90;;;;;;4204007;28;20049;-69